Aviation Digital Data Service (ADDS)

Output produced by METARs form (1758 UTC 15 December 2017)
found at http://www.aviationweather.gov/adds/metars/
 
K2G4 151750Z AUTO 26007KT 232V302 3SM OVC007 M06/M07 A2975 RMK AO1
K2G4 151730Z AUTO 25007G14KT 2 1/2SM OVC007 M06/M07 A2975 RMK AO1
K2G4 151710Z AUTO 26007KT 3SM OVC005 M06/M07 A2976 RMK AO1
K2G4 151650Z AUTO 25006KT 3SM OVC005 M06/M07 A2978 RMK AO1
K2G4 151630Z AUTO 25007KT 3SM OVC005 M06/M07 A2979 RMK AO1
K2G4 151610Z AUTO 24004KT 2SM OVC003 M06/M07 A2980 RMK AO1
K2G4 151550Z AUTO 23004KT 2SM OVC003 M06/M07 A2981 RMK AO1
K2G4 151530Z AUTO 22005KT 1 3/4SM OVC005 M06/M07 A2981 RMK AO1
K2G4 151510Z AUTO 22005KT 2SM OVC007 M06/M07 A2982 RMK AO1
K2G4 151450Z AUTO 21005KT 3SM OVC009 M07/M07 A2982 RMK AO1
K2G4 151430Z AUTO 22005KT 4SM OVC011 M07/M07 A2982 RMK AO1
K2G4 151410Z AUTO 20005KT 7SM OVC011 M07/M08 A2982 RMK AO1
K2G4 151350Z AUTO 19003KT 7SM OVC011 M07/M08 A2981 RMK AO1
K2G4 151310Z AUTO 17003KT 7SM SCT015 M08/M08 A2982 RMK AO1
K2G4 151250Z AUTO 16003KT 7SM SCT015 M08/M08 A2982 RMK AO1
K2G4 151230Z AUTO 15004KT 7SM BKN015 M08/M08 A2983 RMK AO1
K2G4 151210Z AUTO 15003KT 10SM BKN015 M07/M08 A2983 RMK AO1
K2G4 151150Z AUTO 17003KT 4SM SCT008 BKN015 M07/M08 A2983 RMK AO1
K2G4 151130Z AUTO 13003KT 5SM SCT008 BKN015 M07/M08 A2983 RMK AO1
K2G4 151110Z AUTO 19003KT 10SM SCT008 BKN015 M07/M07 A2983 RMK AO1
K2G4 151050Z AUTO 19004KT 10SM BKN015 M07/M07 A2983 RMK AO1
K2G4 151030Z AUTO 19004KT 10SM SCT005 SCT017 M07/M08 A2984 RMK AO1
K2G4 151010Z AUTO 17004KT 10SM BKN005 BKN017 M07/M08 A2983 RMK AO1
K2G4 150950Z AUTO 18003KT 10SM OVC003 M07/M08 A2984 RMK AO1
K2G4 150930Z AUTO 18004KT 7SM SCT003 OVC018 M07/M08 A2985 RMK AO1
K2G4 150910Z AUTO 20004KT 10SM OVC018 M07/M08 A2985 RMK AO1
K2G4 150850Z AUTO 20003KT 7SM OVC018 M07/M08 A2985 RMK AO1
K2G4 150830Z AUTO 21003KT 7SM OVC018 M07/M08 A2985 RMK AO1
K2G4 150810Z AUTO 21004KT 4SM BKN018 M07/M08 A2986 RMK AO1
K2G4 150750Z AUTO 21004KT 10SM BKN018 M07/M08 A2986 RMK AO1
K2G4 150730Z AUTO 21005KT 10SM OVC020 M08/M08 A2985 RMK AO1
K2G4 150710Z AUTO 22003KT 10SM OVC020 M08/M08 A2986 RMK AO1
K2G4 150650Z AUTO 23003KT 10SM BKN020 M08/M09 A2986 RMK AO1
K2G4 150630Z AUTO 24003KT 10SM SCT006 BKN020 M08/M09 A2987 RMK AO1
K2G4 150610Z AUTO 23003KT 10SM SCT006 BKN020 M08/M09 A2987 RMK AO1
K2G4 150550Z AUTO 24004KT 10SM OVC020 M08/M09 A2988 RMK AO1
K2G4 150530Z AUTO 00000KT 10SM SCT004 BKN020 M08/M09 A2988 RMK AO1
K2G4 150510Z AUTO 21004KT 10SM SCT006 BKN020 M08/M10 A2988 RMK AO1
K2G4 150450Z AUTO 00000KT 10SM OVC020 M09/M10 A2989 RMK AO1
K2G4 150430Z AUTO 00000KT 10SM OVC020 M09/M10 A2989 RMK AO1
K2G4 150410Z AUTO 00000KT 10SM OVC020 M09/M10 A2989 RMK AO1
K2G4 150350Z AUTO 00000KT 10SM OVC020 M09/M10 A2989 RMK AO1
K2G4 150330Z AUTO 00000KT 10SM OVC020 M09/M10 A2989 RMK AO1
K2G4 150310Z AUTO 32003KT 10SM OVC018 M09/M10 A2989 RMK AO1
K2G4 150250Z AUTO 33003KT 10SM OVC018 M09/M10 A2989 RMK AO1
K2G4 150230Z AUTO 34003KT 10SM OVC018 M09/M10 A2989 RMK AO1
K2G4 150210Z AUTO 00000KT 10SM BKN018 M08/M10 A2989 RMK AO1
K2G4 150150Z AUTO 00000KT 10SM SCT008 BKN018 M08/M10 A2989 RMK AO1
K2G4 150130Z AUTO 00000KT 10SM BKN020 M08/M10 A2989 RMK AO1
K2G4 150110Z AUTO 30003KT 10SM BKN022 M09/M10 A2989 RMK AO1
K2G4 150050Z AUTO 31003KT 10SM SCT003 BKN022 M08/M10 A2989 RMK AO1
K2G4 150030Z AUTO 32003KT 7SM BKN003 OVC022 M08/M09 A2988 RMK AO1
K2G4 150010Z AUTO 00000KT 7SM OVC003 M08/M09 A2987 RMK AO1
K2G4 142350Z AUTO 29003KT 7SM OVC003 M08/M10 A2987 RMK AO1
K2G4 142330Z AUTO 00000KT 7SM OVC003 M09/M10 A2986 RMK AO1
K2G4 142310Z AUTO 29003KT 7SM BKN003 BKN024 M09/M10 A2986 RMK AO1
K2G4 142250Z AUTO 00000KT 5SM BKN003 SCT012 BKN024 M09/M10 A2984 RMK AO1
K2G4 142230Z AUTO 31003KT 7SM BKN003 OVC024 M09/M10 A2984 RMK AO1
K2G4 142210Z AUTO 31004KT 3SM BKN005 OVC009 M08/M10 A2984 RMK AO1
K2G4 142150Z AUTO 31003KT 1 3/4SM OVC007 M08/M10 A2983 RMK AO1 VIS 1V2 1/2
K2G4 142130Z AUTO 32004KT 1SM OVC005 M08/M09 A2983 RMK AO1
K2G4 142110Z AUTO 31006KT 1 1/4SM OVC005 M08/M09 A2982 RMK AO1
K2G4 142050Z AUTO 32005KT 1 1/2SM BKN005 OVC010 M07/M09 A2981 RMK AO1
K2G4 142030Z AUTO 30006KT 1 1/4SM OVC010 M07/M09 A2980 RMK AO1
K2G4 142010Z AUTO 31006KT 2SM OVC008 M07/M09 A2980 RMK AO1
K2G4 141950Z AUTO 30007KT 272V332 4SM OVC011 M07/M09 A2979 RMK AO1
K2G4 141930Z AUTO 30006KT 4SM BKN011 BKN017 M07/M09 A2978 RMK AO1
K2G4 141910Z AUTO 31009KT 272V332 3SM OVC013 M07/M10 A2976 RMK AO1
K2G4 141850Z AUTO 29006G15KT 4SM BKN011 BKN019 M07/M10 A2975 RMK AO1
K2G4 141830Z AUTO 29009G15KT 7SM BKN011 M07/M10 A2975 RMK AO1
K2G4 141810Z AUTO 30008KT 272V332 10SM BKN008 OVC013 M07/M10 A2974 RMK AO1